sensor_id;sensor_type;location;lat;lon;timestamp;temperature;humidity
15203;DHT22;7702;51.046;5.184;2023-03-21T00:01:04;10.40;99.90
15203;DHT22;7702;51.046;5.184;2023-03-21T00:03:32;10.40;99.90
15203;DHT22;7702;51.046;5.184;2023-03-21T00:06:03;10.40;99.90
15203;DHT22;7702;51.046;5.184;2023-03-21T00:08:29;10.40;99.90
15203;DHT22;7702;51.046;5.184;2023-03-21T00:11:06;10.30;99.90
15203;DHT22;7702;51.046;5.184;2023-03-21T00:13:33;10.30;99.90
15203;DHT22;7702;51.046;5.184;2023-03-21T00:16:13;10.40;99.90
15203;DHT22;7702;51.046;5.184;2023-03-21T00:18:44;10.40;99.90
15203;DHT22;7702;51.046;5.184;2023-03-21T00:21:15;10.40;99.90
15203;DHT22;7702;51.046;5.184;2023-03-21T00:23:42;10.40;99.90
15203;DHT22;7702;51.046;5.184;2023-03-21T00:26:09;10.40;99.90
15203;DHT22;7702;51.046;5.184;2023-03-21T00:28:40;10.40;99.90
15203;DHT22;7702;51.046;5.184;2023-03-21T00:31:06;10.40;99.90
15203;DHT22;7702;51.046;5.184;2023-03-21T00:33:33;10.40;99.90
15203;DHT22;7702;51.046;5.184;2023-03-21T00:36:00;10.40;99.90
15203;DHT22;7702;51.046;5.184;2023-03-21T00:38:26;10.40;99.90
15203;DHT22;7702;51.046;5.184;2023-03-21T00:40:52;10.30;99.90
15203;DHT22;7702;51.046;5.184;2023-03-21T00:43:19;10.30;99.90
15203;DHT22;7702;51.046;5.184;2023-03-21T00:45:49;10.30;99.90
15203;DHT22;7702;51.046;5.184;2023-03-21T00:48:16;10.30;99.90
15203;DHT22;7702;51.046;5.184;2023-03-21T00:50:44;10.30;99.90
15203;DHT22;7702;51.046;5.184;2023-03-21T00:53:12;10.30;99.90
15203;DHT22;7702;51.046;5.184;2023-03-21T00:55:38;10.30;99.90
15203;DHT22;7702;51.046;5.184;2023-03-21T00:58:05;10.30;99.90
15203;DHT22;7702;51.046;5.184;2023-03-21T01:00:32;10.30;99.90
15203;DHT22;7702;51.046;5.184;2023-03-21T01:02:58;10.20;99.90
15203;DHT22;7702;51.046;5.184;2023-03-21T01:05:32;10.20;99.90
15203;DHT22;7702;51.046;5.184;2023-03-21T01:08:17;10.20;99.90
15203;DHT22;7702;51.046;5.184;2023-03-21T01:10:45;10.20;99.90
15203;DHT22;7702;51.046;5.184;2023-03-21T01:13:14;10.10;99.90
15203;DHT22;7702;51.046;5.184;2023-03-21T01:15:45;10.20;99.90
15203;DHT22;7702;51.046;5.184;2023-03-21T01:18:12;10.20;99.90
15203;DHT22;7702;51.046;5.184;2023-03-21T01:20:40;10.10;99.90
15203;DHT22;7702;51.046;5.184;2023-03-21T01:23:07;10.10;99.90
15203;DHT22;7702;51.046;5.184;2023-03-21T01:25:32;10.20;99.90
15203;DHT22;7702;51.046;5.184;2023-03-21T01:27:58;10.30;99.90
15203;DHT22;7702;51.046;5.184;2023-03-21T01:30:24;10.20;99.90
15203;DHT22;7702;51.046;5.184;2023-03-21T01:32:50;10.20;99.90
15203;DHT22;7702;51.046;5.184;2023-03-21T01:35:16;10.20;99.90
15203;DHT22;7702;51.046;5.184;2023-03-21T01:37:42;10.20;99.90
15203;DHT22;7702;51.046;5.184;2023-03-21T01:40:10;10.10;99.90
15203;DHT22;7702;51.046;5.184;2023-03-21T01:42:38;10.10;99.90
15203;DHT22;7702;51.046;5.184;2023-03-21T01:46:00;10.10;99.90
15203;DHT22;7702;51.046;5.184;2023-03-21T01:47:52;10.10;99.90
15203;DHT22;7702;51.046;5.184;2023-03-21T01:50:17;10.10;99.90
15203;DHT22;7702;51.046;5.184;2023-03-21T01:52:47;10.10;99.90
15203;DHT22;7702;51.046;5.184;2023-03-21T01:55:15;10.10;99.90
15203;DHT22;7702;51.046;5.184;2023-03-21T01:57:46;10.10;99.90
15203;DHT22;7702;51.046;5.184;2023-03-21T02:00:15;10.10;99.90
15203;DHT22;7702;51.046;5.184;2023-03-21T02:02:45;10.10;99.90
15203;DHT22;7702;51.046;5.184;2023-03-21T02:05:23;10.10;99.90
15203;DHT22;7702;51.046;5.184;2023-03-21T02:07:52;10.20;99.90
15203;DHT22;7702;51.046;5.184;2023-03-21T02:10:18;10.10;99.90
15203;DHT22;7702;51.046;5.184;2023-03-21T02:12:44;10.10;99.90
15203;DHT22;7702;51.046;5.184;2023-03-21T02:15:10;10.10;99.90
15203;DHT22;7702;51.046;5.184;2023-03-21T02:23:39;10.00;99.90
15203;DHT22;7702;51.046;5.184;2023-03-21T02:29:00;10.00;99.90
15203;DHT22;7702;51.046;5.184;2023-03-21T02:31:45;10.00;99.90
15203;DHT22;7702;51.046;5.184;2023-03-21T02:34:30;10.00;99.90
15203;DHT22;7702;51.046;5.184;2023-03-21T02:37:28;10.00;99.90
15203;DHT22;7702;51.046;5.184;2023-03-21T02:42:43;10.00;99.90
15203;DHT22;7702;51.046;5.184;2023-03-21T02:45:19;10.00;99.90
15203;DHT22;7702;51.046;5.184;2023-03-21T02:47:50;10.00;99.90
15203;DHT22;7702;51.046;5.184;2023-03-21T02:50:18;10.00;99.90
15203;DHT22;7702;51.046;5.184;2023-03-21T02:52:47;10.00;99.90
15203;DHT22;7702;51.046;5.184;2023-03-21T02:55:18;10.00;99.90
15203;DHT22;7702;51.046;5.184;2023-03-21T02:57:47;10.00;99.90
15203;DHT22;7702;51.046;5.184;2023-03-21T03:00:20;9.90;99.90
15203;DHT22;7702;51.046;5.184;2023-03-21T03:02:48;10.00;99.90
15203;DHT22;7702;51.046;5.184;2023-03-21T03:05:32;10.00;99.90
15203;DHT22;7702;51.046;5.184;2023-03-21T03:18:55;10.00;99.90
15203;DHT22;7702;51.046;5.184;2023-03-21T03:24:21;10.00;99.90
15203;DHT22;7702;51.046;5.184;2023-03-21T03:29:16;10.10;99.90
15203;DHT22;7702;51.046;5.184;2023-03-21T03:31:48;10.00;99.90
15203;DHT22;7702;51.046;5.184;2023-03-21T03:34:18;10.00;99.90
15203;DHT22;7702;51.046;5.184;2023-03-21T03:36:49;10.00;99.90
15203;DHT22;7702;51.046;5.184;2023-03-21T03:39:22;10.00;99.90
15203;DHT22;7702;51.046;5.184;2023-03-21T03:42:04;10.00;99.90
15203;DHT22;7702;51.046;5.184;2023-03-21T03:44:30;10.10;99.90
15203;DHT22;7702;51.046;5.184;2023-03-21T03:47:05;10.20;99.90
15203;DHT22;7702;51.046;5.184;2023-03-21T03:49:36;10.20;99.90
15203;DHT22;7702;51.046;5.184;2023-03-21T03:52:30;10.20;99.90
15203;DHT22;7702;51.046;5.184;2023-03-21T03:54:58;10.10;99.90
15203;DHT22;7702;51.046;5.184;2023-03-21T03:57:25;10.10;99.90
15203;DHT22;7702;51.046;5.184;2023-03-21T03:59:51;10.10;99.90
15203;DHT22;7702;51.046;5.184;2023-03-21T04:02:17;10.10;99.90
15203;DHT22;7702;51.046;5.184;2023-03-21T04:04:45;10.10;99.90
15203;DHT22;7702;51.046;5.184;2023-03-21T04:07:11;10.10;99.90
15203;DHT22;7702;51.046;5.184;2023-03-21T04:09:37;10.20;99.90
15203;DHT22;7702;51.046;5.184;2023-03-21T04:12:03;10.20;99.90
15203;DHT22;7702;51.046;5.184;2023-03-21T04:14:29;10.20;99.90
15203;DHT22;7702;51.046;5.184;2023-03-21T04:16:55;10.20;99.90
15203;DHT22;7702;51.046;5.184;2023-03-21T04:19:21;10.20;99.90
15203;DHT22;7702;51.046;5.184;2023-03-21T04:21:47;10.20;99.90
15203;DHT22;7702;51.046;5.184;2023-03-21T04:24:13;10.20;99.90
15203;DHT22;7702;51.046;5.184;2023-03-21T04:26:39;10.20;99.90
15203;DHT22;7702;51.046;5.184;2023-03-21T04:29:05;10.30;99.90
15203;DHT22;7702;51.046;5.184;2023-03-21T04:31:32;10.30;99.90
15203;DHT22;7702;51.046;5.184;2023-03-21T04:34:00;10.30;99.90
15203;DHT22;7702;51.046;5.184;2023-03-21T04:36:26;10.30;99.90
15203;DHT22;7702;51.046;5.184;2023-03-21T04:38:56;10.40;99.90
15203;DHT22;7702;51.046;5.184;2023-03-21T04:41:29;10.30;99.90
15203;DHT22;7702;51.046;5.184;2023-03-21T04:43:55;10.30;99.90
15203;DHT22;7702;51.046;5.184;2023-03-21T04:46:22;10.30;99.90
15203;DHT22;7702;51.046;5.184;2023-03-21T04:48:47;10.30;99.90
15203;DHT22;7702;51.046;5.184;2023-03-21T04:51:14;10.30;99.90
15203;DHT22;7702;51.046;5.184;2023-03-21T04:53:40;10.40;99.90
15203;DHT22;7702;51.046;5.184;2023-03-21T04:56:10;10.40;99.90
15203;DHT22;7702;51.046;5.184;2023-03-21T04:58:36;10.40;99.90
15203;DHT22;7702;51.046;5.184;2023-03-21T05:01:02;10.40;99.90
15203;DHT22;7702;51.046;5.184;2023-03-21T05:03:30;10.30;99.90
15203;DHT22;7702;51.046;5.184;2023-03-21T05:05:59;10.40;99.90
15203;DHT22;7702;51.046;5.184;2023-03-21T05:08:25;10.40;99.90
15203;DHT22;7702;51.046;5.184;2023-03-21T05:10:51;10.40;99.90
15203;DHT22;7702;51.046;5.184;2023-03-21T05:13:16;10.40;99.90
15203;DHT22;7702;51.046;5.184;2023-03-21T05:15:42;10.40;99.90
15203;DHT22;7702;51.046;5.184;2023-03-21T05:18:08;10.50;99.90
15203;DHT22;7702;51.046;5.184;2023-03-21T05:20:40;10.50;99.90
15203;DHT22;7702;51.046;5.184;2023-03-21T05:23:11;10.50;99.90
15203;DHT22;7702;51.046;5.184;2023-03-21T05:25:38;10.50;99.90
15203;DHT22;7702;51.046;5.184;2023-03-21T05:28:04;10.50;99.90
15203;DHT22;7702;51.046;5.184;2023-03-21T05:30:30;10.50;99.90
15203;DHT22;7702;51.046;5.184;2023-03-21T05:32:56;10.50;99.90
15203;DHT22;7702;51.046;5.184;2023-03-21T05:35:23;10.50;99.90
15203;DHT22;7702;51.046;5.184;2023-03-21T05:37:49;10.50;99.90
15203;DHT22;7702;51.046;5.184;2023-03-21T05:40:14;10.50;99.90
15203;DHT22;7702;51.046;5.184;2023-03-21T05:42:40;10.50;99.90
15203;DHT22;7702;51.046;5.184;2023-03-21T05:45:06;10.50;99.90
15203;DHT22;7702;51.046;5.184;2023-03-21T05:47:32;10.50;99.90
15203;DHT22;7702;51.046;5.184;2023-03-21T05:49:57;10.50;99.90
15203;DHT22;7702;51.046;5.184;2023-03-21T05:52:23;10.50;99.90
15203;DHT22;7702;51.046;5.184;2023-03-21T05:54:50;10.50;99.90
15203;DHT22;7702;51.046;5.184;2023-03-21T05:57:15;10.50;99.90
15203;DHT22;7702;51.046;5.184;2023-03-21T05:59:43;10.50;99.90
15203;DHT22;7702;51.046;5.184;2023-03-21T06:02:09;10.50;99.90
15203;DHT22;7702;51.046;5.184;2023-03-21T06:04:36;10.50;99.90
15203;DHT22;7702;51.046;5.184;2023-03-21T06:07:02;10.50;99.90
15203;DHT22;7702;51.046;5.184;2023-03-21T06:09:28;10.50;99.90
15203;DHT22;7702;51.046;5.184;2023-03-21T06:11:55;10.50;99.90
15203;DHT22;7702;51.046;5.184;2023-03-21T06:14:22;10.50;99.90
15203;DHT22;7702;51.046;5.184;2023-03-21T06:16:49;10.60;99.90
15203;DHT22;7702;51.046;5.184;2023-03-21T06:19:15;10.60;99.90
15203;DHT22;7702;51.046;5.184;2023-03-21T06:21:41;10.50;99.90
15203;DHT22;7702;51.046;5.184;2023-03-21T06:24:07;10.50;99.90
15203;DHT22;7702;51.046;5.184;2023-03-21T06:26:33;10.60;99.90
15203;DHT22;7702;51.046;5.184;2023-03-21T06:28:59;10.50;99.90
15203;DHT22;7702;51.046;5.184;2023-03-21T06:31:24;10.50;99.90
15203;DHT22;7702;51.046;5.184;2023-03-21T06:33:51;10.50;99.90
15203;DHT22;7702;51.046;5.184;2023-03-21T06:36:18;10.50;99.90
15203;DHT22;7702;51.046;5.184;2023-03-21T06:38:44;10.50;99.90
15203;DHT22;7702;51.046;5.184;2023-03-21T06:41:11;10.50;99.90
15203;DHT22;7702;51.046;5.184;2023-03-21T06:43:38;10.50;99.90
15203;DHT22;7702;51.046;5.184;2023-03-21T06:46:04;10.40;99.90
15203;DHT22;7702;51.046;5.184;2023-03-21T06:48:30;10.40;99.90
15203;DHT22;7702;51.046;5.184;2023-03-21T06:50:56;10.40;99.90
15203;DHT22;7702;51.046;5.184;2023-03-21T06:53:23;10.40;99.90
15203;DHT22;7702;51.046;5.184;2023-03-21T06:55:53;10.40;99.90
15203;DHT22;7702;51.046;5.184;2023-03-21T06:58:19;10.40;99.90
15203;DHT22;7702;51.046;5.184;2023-03-21T07:00:45;10.50;99.90
15203;DHT22;7702;51.046;5.184;2023-03-21T07:03:11;10.40;99.90
15203;DHT22;7702;51.046;5.184;2023-03-21T07:05:38;10.40;99.90
15203;DHT22;7702;51.046;5.184;2023-03-21T07:08:05;10.40;99.90
15203;DHT22;7702;51.046;5.184;2023-03-21T07:10:31;10.50;99.90
15203;DHT22;7702;51.046;5.184;2023-03-21T07:13:00;10.50;99.90
15203;DHT22;7702;51.046;5.184;2023-03-21T07:15:26;10.50;99.90
15203;DHT22;7702;51.046;5.184;2023-03-21T07:17:52;10.50;99.90
15203;DHT22;7702;51.046;5.184;2023-03-21T07:20:18;10.50;99.90
15203;DHT22;7702;51.046;5.184;2023-03-21T07:22:44;10.50;99.90
15203;DHT22;7702;51.046;5.184;2023-03-21T07:25:10;10.50;99.90
15203;DHT22;7702;51.046;5.184;2023-03-21T07:27:37;10.50;99.90
15203;DHT22;7702;51.046;5.184;2023-03-21T07:30:04;10.50;99.90
15203;DHT22;7702;51.046;5.184;2023-03-21T07:32:34;10.60;99.90
15203;DHT22;7702;51.046;5.184;2023-03-21T07:35:00;10.60;99.90
15203;DHT22;7702;51.046;5.184;2023-03-21T07:37:26;10.50;99.90
15203;DHT22;7702;51.046;5.184;2023-03-21T07:39:52;10.50;99.90
15203;DHT22;7702;51.046;5.184;2023-03-21T07:42:18;10.50;99.90
15203;DHT22;7702;51.046;5.184;2023-03-21T07:44:44;10.50;99.90
15203;DHT22;7702;51.046;5.184;2023-03-21T07:47:10;10.50;99.90
15203;DHT22;7702;51.046;5.184;2023-03-21T07:49:36;10.50;99.90
15203;DHT22;7702;51.046;5.184;2023-03-21T07:52:03;10.40;99.90
15203;DHT22;7702;51.046;5.184;2023-03-21T07:54:28;10.50;99.90
15203;DHT22;7702;51.046;5.184;2023-03-21T07:56:55;10.50;99.90
15203;DHT22;7702;51.046;5.184;2023-03-21T07:59:22;10.60;99.90
15203;DHT22;7702;51.046;5.184;2023-03-21T08:01:47;10.60;99.90
15203;DHT22;7702;51.046;5.184;2023-03-21T08:04:13;10.60;99.90
15203;DHT22;7702;51.046;5.184;2023-03-21T08:06:39;10.60;99.90
15203;DHT22;7702;51.046;5.184;2023-03-21T08:09:06;10.70;99.90
15203;DHT22;7702;51.046;5.184;2023-03-21T08:11:32;10.70;99.90
15203;DHT22;7702;51.046;5.184;2023-03-21T08:13:59;10.70;99.90
15203;DHT22;7702;51.046;5.184;2023-03-21T08:16:25;10.80;99.90
15203;DHT22;7702;51.046;5.184;2023-03-21T08:18:51;10.80;99.90
15203;DHT22;7702;51.046;5.184;2023-03-21T08:21:17;10.70;99.90
15203;DHT22;7702;51.046;5.184;2023-03-21T08:23:42;10.80;99.90
15203;DHT22;7702;51.046;5.184;2023-03-21T08:26:08;10.90;99.90
15203;DHT22;7702;51.046;5.184;2023-03-21T08:28:35;10.90;99.90
15203;DHT22;7702;51.046;5.184;2023-03-21T08:31:10;10.90;99.90
15203;DHT22;7702;51.046;5.184;2023-03-21T08:33:36;10.90;99.90
15203;DHT22;7702;51.046;5.184;2023-03-21T08:36:04;10.80;99.90
15203;DHT22;7702;51.046;5.184;2023-03-21T08:38:30;10.80;99.90
15203;DHT22;7702;51.046;5.184;2023-03-21T08:40:58;10.90;99.90
15203;DHT22;7702;51.046;5.184;2023-03-21T08:43:28;10.90;99.90
15203;DHT22;7702;51.046;5.184;2023-03-21T08:45:55;10.90;99.90
15203;DHT22;7702;51.046;5.184;2023-03-21T08:48:21;10.90;99.90
15203;DHT22;7702;51.046;5.184;2023-03-21T08:50:46;11.10;99.90
15203;DHT22;7702;51.046;5.184;2023-03-21T08:53:12;11.20;99.90
15203;DHT22;7702;51.046;5.184;2023-03-21T08:55:39;11.30;99.90
15203;DHT22;7702;51.046;5.184;2023-03-21T08:58:04;11.50;99.90
15203;DHT22;7702;51.046;5.184;2023-03-21T09:00:31;11.50;99.90
15203;DHT22;7702;51.046;5.184;2023-03-21T09:02:57;11.60;99.90
15203;DHT22;7702;51.046;5.184;2023-03-21T09:05:25;11.60;99.90
15203;DHT22;7702;51.046;5.184;2023-03-21T09:07:51;11.60;99.90
15203;DHT22;7702;51.046;5.184;2023-03-21T09:10:20;11.70;99.90
15203;DHT22;7702;51.046;5.184;2023-03-21T09:12:47;11.80;99.90
15203;DHT22;7702;51.046;5.184;2023-03-21T09:15:13;11.90;99.90
15203;DHT22;7702;51.046;5.184;2023-03-21T09:17:39;11.90;99.90
15203;DHT22;7702;51.046;5.184;2023-03-21T09:20:12;12.00;99.90
15203;DHT22;7702;51.046;5.184;2023-03-21T09:22:44;12.00;99.90
15203;DHT22;7702;51.046;5.184;2023-03-21T09:25:12;12.00;99.90
15203;DHT22;7702;51.046;5.184;2023-03-21T09:27:39;12.00;99.90
15203;DHT22;7702;51.046;5.184;2023-03-21T09:30:06;11.90;99.90
15203;DHT22;7702;51.046;5.184;2023-03-21T09:32:34;11.80;99.90
15203;DHT22;7702;51.046;5.184;2023-03-21T09:34:59;11.80;99.90
15203;DHT22;7702;51.046;5.184;2023-03-21T09:37:26;11.70;99.90
15203;DHT22;7702;51.046;5.184;2023-03-21T09:39:52;11.50;99.90
15203;DHT22;7702;51.046;5.184;2023-03-21T09:45:20;11.60;99.90
15203;DHT22;7702;51.046;5.184;2023-03-21T09:47:48;11.70;99.90
15203;DHT22;7702;51.046;5.184;2023-03-21T09:50:30;11.70;99.90
15203;DHT22;7702;51.046;5.184;2023-03-21T09:53:28;11.60;99.90
15203;DHT22;7702;51.046;5.184;2023-03-21T09:55:58;11.60;99.90
15203;DHT22;7702;51.046;5.184;2023-03-21T09:58:31;11.70;99.90
15203;DHT22;7702;51.046;5.184;2023-03-21T10:01:11;11.80;99.90
15203;DHT22;7702;51.046;5.184;2023-03-21T10:03:48;11.90;99.90
15203;DHT22;7702;51.046;5.184;2023-03-21T10:06:19;12.00;99.90
15203;DHT22;7702;51.046;5.184;2023-03-21T10:08:59;12.10;99.90
15203;DHT22;7702;51.046;5.184;2023-03-21T10:11:30;12.30;99.90
15203;DHT22;7702;51.046;5.184;2023-03-21T10:14:09;12.40;99.90
15203;DHT22;7702;51.046;5.184;2023-03-21T10:16:43;12.30;99.90
15203;DHT22;7702;51.046;5.184;2023-03-21T10:19:13;12.30;99.90
15203;DHT22;7702;51.046;5.184;2023-03-21T10:21:41;12.40;99.90
15203;DHT22;7702;51.046;5.184;2023-03-21T10:24:17;12.60;99.90
15203;DHT22;7702;51.046;5.184;2023-03-21T10:26:45;12.80;99.90
15203;DHT22;7702;51.046;5.184;2023-03-21T10:29:13;12.80;99.90
15203;DHT22;7702;51.046;5.184;2023-03-21T10:31:39;12.70;99.90
15203;DHT22;7702;51.046;5.184;2023-03-21T10:34:15;12.80;99.90
15203;DHT22;7702;51.046;5.184;2023-03-21T10:36:41;12.80;99.90
15203;DHT22;7702;51.046;5.184;2023-03-21T10:39:19;12.80;99.90
15203;DHT22;7702;51.046;5.184;2023-03-21T10:41:47;12.90;99.90
15203;DHT22;7702;51.046;5.184;2023-03-21T10:44:15;12.90;99.90
15203;DHT22;7702;51.046;5.184;2023-03-21T10:49:16;13.10;99.90
15203;DHT22;7702;51.046;5.184;2023-03-21T10:51:43;13.20;99.90
15203;DHT22;7702;51.046;5.184;2023-03-21T10:54:17;13.20;99.90
15203;DHT22;7702;51.046;5.184;2023-03-21T10:59:24;13.40;99.90
15203;DHT22;7702;51.046;5.184;2023-03-21T11:01:51;13.40;99.90
15203;DHT22;7702;51.046;5.184;2023-03-21T11:04:23;13.30;99.90
15203;DHT22;7702;51.046;5.184;2023-03-21T11:07:04;13.20;99.90
15203;DHT22;7702;51.046;5.184;2023-03-21T11:09:52;13.10;99.90
15203;DHT22;7702;51.046;5.184;2023-03-21T11:12:28;13.20;99.90
15203;DHT22;7702;51.046;5.184;2023-03-21T11:14:55;13.40;99.90
15203;DHT22;7702;51.046;5.184;2023-03-21T11:17:29;13.60;99.90
15203;DHT22;7702;51.046;5.184;2023-03-21T11:20:00;13.70;99.90
15203;DHT22;7702;51.046;5.184;2023-03-21T11:22:38;13.80;99.90
15203;DHT22;7702;51.046;5.184;2023-03-21T11:25:07;13.70;99.90
15203;DHT22;7702;51.046;5.184;2023-03-21T11:27:49;13.70;99.90
15203;DHT22;7702;51.046;5.184;2023-03-21T11:30:26;13.70;99.90
15203;DHT22;7702;51.046;5.184;2023-03-21T11:32:57;13.70;99.90
15203;DHT22;7702;51.046;5.184;2023-03-21T11:35:31;13.60;99.90
15203;DHT22;7702;51.046;5.184;2023-03-21T11:37:57;13.70;99.90
15203;DHT22;7702;51.046;5.184;2023-03-21T11:40:28;13.80;99.90
15203;DHT22;7702;51.046;5.184;2023-03-21T11:42:58;13.90;99.90
15203;DHT22;7702;51.046;5.184;2023-03-21T11:45:30;14.00;99.90
15203;DHT22;7702;51.046;5.184;2023-03-21T11:47:59;14.10;99.90
15203;DHT22;7702;51.046;5.184;2023-03-21T11:59:42;15.40;99.90
15203;DHT22;7702;51.046;5.184;2023-03-21T12:18:28;15.30;99.90
15203;DHT22;7702;51.046;5.184;2023-03-21T12:26:31;15.10;99.90
15203;DHT22;7702;51.046;5.184;2023-03-21T12:34:48;14.90;99.90
15203;DHT22;7702;51.046;5.184;2023-03-21T12:37:22;15.00;99.90
15203;DHT22;7702;51.046;5.184;2023-03-21T12:39:54;15.00;99.90
15203;DHT22;7702;51.046;5.184;2023-03-21T12:45:21;14.80;99.90
15203;DHT22;7702;51.046;5.184;2023-03-21T12:47:52;14.80;99.90
15203;DHT22;7702;51.046;5.184;2023-03-21T12:50:26;15.00;99.90
15203;DHT22;7702;51.046;5.184;2023-03-21T12:53:00;15.30;99.90
15203;DHT22;7702;51.046;5.184;2023-03-21T12:55:31;15.40;99.90
15203;DHT22;7702;51.046;5.184;2023-03-21T13:06:00;15.80;99.90
15203;DHT22;7702;51.046;5.184;2023-03-21T13:11:03;15.50;99.90
15203;DHT22;7702;51.046;5.184;2023-03-21T13:24:31;14.80;99.90
15203;DHT22;7702;51.046;5.184;2023-03-21T13:29:45;15.10;99.90
15203;DHT22;7702;51.046;5.184;2023-03-21T13:32:39;15.20;99.90
15203;DHT22;7702;51.046;5.184;2023-03-21T13:37:41;15.40;99.90
15203;DHT22;7702;51.046;5.184;2023-03-21T13:40:20;15.70;99.90
15203;DHT22;7702;51.046;5.184;2023-03-21T13:42:53;15.60;99.90
15203;DHT22;7702;51.046;5.184;2023-03-21T13:45:45;15.60;99.90
15203;DHT22;7702;51.046;5.184;2023-03-21T13:48:28;15.40;99.90
15203;DHT22;7702;51.046;5.184;2023-03-21T13:51:02;15.40;99.90
15203;DHT22;7702;51.046;5.184;2023-03-21T13:53:39;15.40;99.90
15203;DHT22;7702;51.046;5.184;2023-03-21T13:56:19;15.30;99.90
15203;DHT22;7702;51.046;5.184;2023-03-21T14:01:26;15.50;99.90
15203;DHT22;7702;51.046;5.184;2023-03-21T14:03:59;15.50;99.90
15203;DHT22;7702;51.046;5.184;2023-03-21T14:06:32;15.40;99.90
15203;DHT22;7702;51.046;5.184;2023-03-21T14:08:59;15.40;99.90
15203;DHT22;7702;51.046;5.184;2023-03-21T14:11:27;15.30;99.90
15203;DHT22;7702;51.046;5.184;2023-03-21T14:13:53;15.30;99.90
15203;DHT22;7702;51.046;5.184;2023-03-21T14:16:23;15.40;99.90
15203;DHT22;7702;51.046;5.184;2023-03-21T14:18:54;15.30;99.90
15203;DHT22;7702;51.046;5.184;2023-03-21T14:21:22;15.40;99.90
15203;DHT22;7702;51.046;5.184;2023-03-21T14:24:18;15.30;99.90
15203;DHT22;7702;51.046;5.184;2023-03-21T14:26:53;15.30;99.90
15203;DHT22;7702;51.046;5.184;2023-03-21T14:29:28;15.30;99.90
15203;DHT22;7702;51.046;5.184;2023-03-21T14:31:56;15.40;99.90
15203;DHT22;7702;51.046;5.184;2023-03-21T14:34:23;15.40;99.90
15203;DHT22;7702;51.046;5.184;2023-03-21T14:36:50;15.50;99.90
15203;DHT22;7702;51.046;5.184;2023-03-21T14:39:19;15.60;99.90
15203;DHT22;7702;51.046;5.184;2023-03-21T14:41:48;15.80;99.90
15203;DHT22;7702;51.046;5.184;2023-03-21T14:44:18;16.00;99.90
15203;DHT22;7702;51.046;5.184;2023-03-21T14:46:53;15.90;99.90
15203;DHT22;7702;51.046;5.184;2023-03-21T14:51:54;15.80;99.90
15203;DHT22;7702;51.046;5.184;2023-03-21T14:54:20;15.70;99.90
15203;DHT22;7702;51.046;5.184;2023-03-21T14:56:56;15.70;99.90
15203;DHT22;7702;51.046;5.184;2023-03-21T14:59:26;15.50;99.90
15203;DHT22;7702;51.046;5.184;2023-03-21T15:01:53;15.50;99.90
15203;DHT22;7702;51.046;5.184;2023-03-21T15:04:19;15.40;99.90
15203;DHT22;7702;51.046;5.184;2023-03-21T15:06:56;15.30;99.90
15203;DHT22;7702;51.046;5.184;2023-03-21T15:09:25;15.20;99.90
15203;DHT22;7702;51.046;5.184;2023-03-21T15:11:53;15.20;99.90
15203;DHT22;7702;51.046;5.184;2023-03-21T15:14:30;15.10;99.90
15203;DHT22;7702;51.046;5.184;2023-03-21T15:16:58;15.10;99.90
15203;DHT22;7702;51.046;5.184;2023-03-21T15:19:32;15.10;99.90
15203;DHT22;7702;51.046;5.184;2023-03-21T15:22:13;15.10;99.90
15203;DHT22;7702;51.046;5.184;2023-03-21T15:24:45;14.90;99.90
15203;DHT22;7702;51.046;5.184;2023-03-21T15:27:15;14.80;99.90
15203;DHT22;7702;51.046;5.184;2023-03-21T15:29:43;14.80;99.90
15203;DHT22;7702;51.046;5.184;2023-03-21T15:32:15;14.70;99.90
15203;DHT22;7702;51.046;5.184;2023-03-21T15:34:42;15.00;99.90
15203;DHT22;7702;51.046;5.184;2023-03-21T15:37:15;15.10;99.90
15203;DHT22;7702;51.046;5.184;2023-03-21T15:39:41;15.10;99.90
15203;DHT22;7702;51.046;5.184;2023-03-21T15:42:35;15.00;99.90
15203;DHT22;7702;51.046;5.184;2023-03-21T15:47:51;15.00;99.90
15203;DHT22;7702;51.046;5.184;2023-03-21T15:50:39;14.90;99.90
15203;DHT22;7702;51.046;5.184;2023-03-21T15:53:13;14.90;99.90
15203;DHT22;7702;51.046;5.184;2023-03-21T15:55:45;14.80;99.90
15203;DHT22;7702;51.046;5.184;2023-03-21T15:58:22;14.70;99.90
15203;DHT22;7702;51.046;5.184;2023-03-21T16:01:02;14.70;99.90
15203;DHT22;7702;51.046;5.184;2023-03-21T16:03:32;14.70;99.90
15203;DHT22;7702;51.046;5.184;2023-03-21T16:11:22;14.60;99.90
15203;DHT22;7702;51.046;5.184;2023-03-21T16:13:50;14.50;99.90
15203;DHT22;7702;51.046;5.184;2023-03-21T16:16:20;14.50;99.90
15203;DHT22;7702;51.046;5.184;2023-03-21T16:18:46;14.50;99.90
15203;DHT22;7702;51.046;5.184;2023-03-21T16:21:13;14.50;99.90
15203;DHT22;7702;51.046;5.184;2023-03-21T16:23:39;14.50;99.90
15203;DHT22;7702;51.046;5.184;2023-03-21T16:26:05;14.50;99.90
15203;DHT22;7702;51.046;5.184;2023-03-21T16:28:31;14.40;99.90
15203;DHT22;7702;51.046;5.184;2023-03-21T16:30:57;14.30;99.90
15203;DHT22;7702;51.046;5.184;2023-03-21T16:33:23;14.20;99.90
15203;DHT22;7702;51.046;5.184;2023-03-21T16:35:52;14.10;99.90
15203;DHT22;7702;51.046;5.184;2023-03-21T16:38:22;14.00;99.90
15203;DHT22;7702;51.046;5.184;2023-03-21T16:40:48;13.90;99.90
15203;DHT22;7702;51.046;5.184;2023-03-21T16:43:15;13.70;99.90
15203;DHT22;7702;51.046;5.184;2023-03-21T16:45:41;13.60;99.90
15203;DHT22;7702;51.046;5.184;2023-03-21T16:48:06;13.50;99.90
15203;DHT22;7702;51.046;5.184;2023-03-21T16:50:39;13.40;99.90
15203;DHT22;7702;51.046;5.184;2023-03-21T16:53:05;13.40;99.90
15203;DHT22;7702;51.046;5.184;2023-03-21T16:55:32;13.40;99.90
15203;DHT22;7702;51.046;5.184;2023-03-21T16:57:59;13.30;99.90
15203;DHT22;7702;51.046;5.184;2023-03-21T17:00:28;13.30;99.90
15203;DHT22;7702;51.046;5.184;2023-03-21T17:02:55;13.30;99.90
15203;DHT22;7702;51.046;5.184;2023-03-21T17:05:22;13.30;99.90
15203;DHT22;7702;51.046;5.184;2023-03-21T17:07:50;13.30;99.90
15203;DHT22;7702;51.046;5.184;2023-03-21T17:10:23;13.20;99.90
15203;DHT22;7702;51.046;5.184;2023-03-21T17:12:49;13.20;99.90
15203;DHT22;7702;51.046;5.184;2023-03-21T17:15:16;13.20;99.90
15203;DHT22;7702;51.046;5.184;2023-03-21T17:17:42;13.20;99.90
15203;DHT22;7702;51.046;5.184;2023-03-21T17:22:43;13.20;99.90
15203;DHT22;7702;51.046;5.184;2023-03-21T17:25:08;13.10;99.90
15203;DHT22;7702;51.046;5.184;2023-03-21T17:27:34;13.10;99.90
15203;DHT22;7702;51.046;5.184;2023-03-21T17:30:00;13.10;99.90
15203;DHT22;7702;51.046;5.184;2023-03-21T17:32:26;13.10;99.90
15203;DHT22;7702;51.046;5.184;2023-03-21T17:34:52;13.10;99.90
15203;DHT22;7702;51.046;5.184;2023-03-21T17:37:20;13.10;99.90
15203;DHT22;7702;51.046;5.184;2023-03-21T17:39:46;13.00;99.90
15203;DHT22;7702;51.046;5.184;2023-03-21T17:42:13;13.10;99.90
15203;DHT22;7702;51.046;5.184;2023-03-21T17:44:45;13.10;99.90
15203;DHT22;7702;51.046;5.184;2023-03-21T17:47:11;13.00;99.90
15203;DHT22;7702;51.046;5.184;2023-03-21T17:49:37;13.00;99.90
15203;DHT22;7702;51.046;5.184;2023-03-21T17:52:03;13.00;99.90
15203;DHT22;7702;51.046;5.184;2023-03-21T17:54:29;12.90;99.90
15203;DHT22;7702;51.046;5.184;2023-03-21T17:56:55;12.90;99.90